createdAt,value
2023-04-21T00:01:39.578Z,25.90
2023-04-21T00:04:28.878Z,30.10
2023-04-21T00:07:20.671Z,25.97
2023-04-21T00:10:10.665Z,29.03
2023-04-21T00:12:59.083Z,25.27
2023-04-21T00:15:48.004Z,24.93
2023-04-21T00:18:38.666Z,27.40
2023-04-21T00:21:28.113Z,28.87
2023-04-21T00:24:16.523Z,28.80
2023-04-21T00:27:06.324Z,27.67
2023-04-21T00:29:55.311Z,29.30
2023-04-21T00:32:43.733Z,29.87
2023-04-21T00:35:33.905Z,27.73
2023-04-21T00:38:22.664Z,28.53
2023-04-21T00:41:11.182Z,28.70
2023-04-21T00:44:03.803Z,28.47
2023-04-21T00:46:52.533Z,27.70
2023-04-21T00:49:41.031Z,32.03
2023-04-21T00:52:31.598Z,29.23
2023-04-21T00:55:20.430Z,27.37
2023-04-21T00:58:08.758Z,28.03
2023-04-21T01:00:57.569Z,29.73
2023-04-21T01:03:46.756Z,27.43
2023-04-21T01:06:36.529Z,29.90
2023-04-21T01:09:26.403Z,28.93
2023-04-21T01:12:14.869Z,28.90
2023-04-21T01:15:03.537Z,31.70
2023-04-21T01:17:53.265Z,30.00
2023-04-21T01:20:42.408Z,31.00
2023-04-21T01:23:32.208Z,27.50
2023-04-21T01:26:21.562Z,28.73
2023-04-21T01:29:10.369Z,30.20
2023-04-21T01:31:58.585Z,29.93
2023-04-21T01:34:47.408Z,30.60
2023-04-21T01:37:36.436Z,27.73
2023-04-21T01:40:26.454Z,29.47
2023-04-21T01:43:16.114Z,31.60
2023-04-21T01:46:04.777Z,28.57
2023-04-21T01:48:53.589Z,28.77
2023-04-21T01:51:42.075Z,30.33
2023-04-21T01:54:31.650Z,30.90
2023-04-21T01:57:21.572Z,30.50
2023-04-21T02:00:11.098Z,31.30
2023-04-21T02:02:59.506Z,29.70
2023-04-21T02:05:48.125Z,30.03
2023-04-21T02:08:36.367Z,31.43
2023-04-21T02:11:26.101Z,31.53
2023-04-21T02:14:16.748Z,30.80
2023-04-21T02:17:06.066Z,29.90
2023-04-21T02:19:54.810Z,29.67
2023-04-21T02:22:43.292Z,29.83
2023-04-21T02:25:31.838Z,30.87
2023-04-21T02:28:20.019Z,27.63
2023-04-21T02:31:09.975Z,27.60
2023-04-21T02:33:59.050Z,27.83
2023-04-21T02:36:48.017Z,33.87
2023-04-21T02:39:36.728Z,30.60
2023-04-21T02:42:25.108Z,32.90
2023-04-21T02:45:13.813Z,30.07
2023-04-21T02:48:03.791Z,29.53
2023-04-21T02:50:53.407Z,30.43
2023-04-21T02:53:42.142Z,31.97
2023-04-21T02:56:31.834Z,28.73
2023-04-21T02:59:20.673Z,32.97
2023-04-21T03:02:09.800Z,30.73
2023-04-21T03:04:59.748Z,31.20
2023-04-21T03:07:48.066Z,32.77
2023-04-21T03:10:38.682Z,32.50
2023-04-21T03:13:27.197Z,30.07
2023-04-21T03:16:15.995Z,28.97
2023-04-21T03:19:05.538Z,30.77
2023-04-21T03:21:55.512Z,32.10
2023-04-21T03:24:43.801Z,31.60
2023-04-21T03:27:32.402Z,30.17
2023-04-21T03:30:20.836Z,30.80
2023-04-21T03:33:09.785Z,31.27
2023-04-21T03:35:58.929Z,30.30
2023-04-21T03:38:49.069Z,33.97
2023-04-21T03:41:37.728Z,30.23
2023-04-21T03:44:28.773Z,30.90
2023-04-21T03:47:18.643Z,33.43
2023-04-21T03:50:08.697Z,31.17
2023-04-21T03:52:59.201Z,33.30
2023-04-21T03:55:52.828Z,30.77
2023-04-21T03:58:42.984Z,35.07
2023-04-21T04:01:32.735Z,33.50
2023-04-21T04:04:22.930Z,30.40
2023-04-21T04:07:12.625Z,30.57
2023-04-21T04:10:03.077Z,31.43
2023-04-21T04:12:56.327Z,28.93
2023-04-21T04:15:46.721Z,32.73
2023-04-21T04:18:41.750Z,31.00
2023-04-21T04:21:34.562Z,31.60
2023-04-21T04:24:28.434Z,30.60
2023-04-21T04:27:18.034Z,28.20
2023-04-21T04:30:09.544Z,31.23
2023-04-21T04:32:58.952Z,33.17
2023-04-21T04:35:47.638Z,32.50
2023-04-21T04:38:37.546Z,29.30
2023-04-21T04:41:25.700Z,32.07
2023-04-21T04:44:15.911Z,29.37
2023-04-21T04:47:06.285Z,30.30
2023-04-21T04:49:54.797Z,29.20
2023-04-21T04:52:44.936Z,29.60
2023-04-21T04:55:33.739Z,30.07
2023-04-21T04:58:22.402Z,28.73
2023-04-21T05:01:14.731Z,27.50
2023-04-21T05:04:04.491Z,31.90
2023-04-21T05:06:53.458Z,31.37
2023-04-21T05:09:42.078Z,28.40
2023-04-21T05:12:30.284Z,27.87
2023-04-21T05:15:18.948Z,28.13
2023-04-21T05:18:07.524Z,29.57
2023-04-21T05:20:57.479Z,31.40
2023-04-21T05:23:45.696Z,27.50
2023-04-21T05:26:33.756Z,28.37
2023-04-21T05:29:21.926Z,25.73
2023-04-21T05:32:12.287Z,27.63
2023-04-21T05:35:00.874Z,28.23
2023-04-21T05:37:50.318Z,31.17
2023-04-21T05:40:38.691Z,25.97
2023-04-21T05:43:27.262Z,27.97
2023-04-21T05:46:15.718Z,28.77
2023-04-21T05:49:03.899Z,27.73
2023-04-21T05:51:52.057Z,24.93
2023-04-21T05:54:41.878Z,28.50
2023-04-21T05:57:30.189Z,29.83
2023-04-21T06:00:19.002Z,26.27
2023-04-21T06:03:07.390Z,28.17
2023-04-21T06:05:56.584Z,26.10
2023-04-21T06:08:44.993Z,28.37
2023-04-21T06:11:34.711Z,26.57
2023-04-21T06:14:22.875Z,24.73
2023-04-21T06:17:10.996Z,27.43
2023-04-21T06:19:59.741Z,25.43
2023-04-21T06:22:48.211Z,26.03
2023-04-21T06:25:36.296Z,28.23
2023-04-21T06:28:26.080Z,29.10
2023-04-21T06:31:15.526Z,27.50
2023-04-21T06:34:03.861Z,25.83
2023-04-21T06:36:52.034Z,26.83
2023-04-21T06:39:40.228Z,28.30
2023-04-21T06:42:28.365Z,28.57
2023-04-21T06:45:17.817Z,26.03
2023-04-21T06:48:06.524Z,28.27
2023-04-21T06:50:54.938Z,23.33
2023-04-21T06:53:43.123Z,25.67
2023-04-21T06:56:31.788Z,24.23
2023-04-21T06:59:20.214Z,25.13
2023-04-21T07:02:10.502Z,23.57
2023-04-21T07:04:58.681Z,24.83
2023-04-21T07:07:46.916Z,23.50
2023-04-21T07:10:35.052Z,26.17
2023-04-21T07:13:23.269Z,26.80
2023-04-21T07:16:11.455Z,25.40
2023-04-21T07:19:01.754Z,25.63
2023-04-21T07:21:50.022Z,23.53
2023-04-21T07:24:38.461Z,26.43
2023-04-21T07:27:26.839Z,23.70
2023-04-21T07:30:15.631Z,25.30
2023-04-21T07:33:03.791Z,24.97
2023-04-21T07:35:53.426Z,24.20
2023-04-21T07:38:43.465Z,24.73
2023-04-21T07:41:31.784Z,25.30
2023-04-21T07:44:19.928Z,24.67
2023-04-21T07:47:08.318Z,25.57
2023-04-21T07:49:56.450Z,29.77
2023-04-21T07:52:46.168Z,27.90
2023-04-21T07:55:37.140Z,21.67
2023-04-21T07:58:25.277Z,23.10
2023-04-21T08:01:13.547Z,22.73
2023-04-21T08:04:01.891Z,21.43
2023-04-21T08:06:50.296Z,24.07
2023-04-21T08:09:40.077Z,23.87
2023-04-21T08:12:28.238Z,23.70
2023-04-21T08:15:16.478Z,21.37
2023-04-21T08:18:04.920Z,22.17
2023-04-21T08:20:53.528Z,21.63
2023-04-21T08:23:41.604Z,20.03
2023-04-21T08:26:33.701Z,23.13
2023-04-21T08:29:21.769Z,20.60
2023-04-21T08:32:09.922Z,21.57
2023-04-21T08:34:58.331Z,21.90
2023-04-21T08:37:46.649Z,19.40
2023-04-21T08:40:37.869Z,19.73
2023-04-21T08:43:27.915Z,19.83
2023-04-21T08:46:17.174Z,18.00
2023-04-21T08:49:05.314Z,19.83
2023-04-21T08:51:53.558Z,17.93
2023-04-21T08:54:42.302Z,18.37
2023-04-21T08:57:30.404Z,20.33
2023-04-21T09:00:20.797Z,18.83
2023-04-21T09:03:19.342Z,16.37
2023-04-21T09:06:13.672Z,16.80
2023-04-21T09:09:05.729Z,15.73
2023-04-21T09:11:57.085Z,15.63
2023-04-21T09:14:45.160Z,18.23
2023-04-21T09:17:36.893Z,15.93
2023-04-21T09:20:26.229Z,19.87
2023-04-21T09:23:14.603Z,17.97
2023-04-21T09:26:04.826Z,16.70
2023-04-21T09:28:53.800Z,15.87
2023-04-21T09:31:41.911Z,14.53
2023-04-21T09:34:33.423Z,15.20
2023-04-21T09:37:24.662Z,16.17
2023-04-21T09:40:15.457Z,13.90
2023-04-21T09:43:03.646Z,15.50
2023-04-21T09:45:52.782Z,16.43
2023-04-21T09:48:44.370Z,15.17
2023-04-21T09:54:33.910Z,14.67
2023-04-21T09:57:26.188Z,13.50
2023-04-21T10:00:15.742Z,15.87
2023-04-21T10:03:10.535Z,15.33
2023-04-21T10:05:59.201Z,14.43
2023-04-21T10:08:50.599Z,13.47
2023-04-21T10:11:39.460Z,13.03
2023-04-21T10:14:27.968Z,13.77
2023-04-21T10:17:17.920Z,13.93
2023-04-21T10:20:09.761Z,12.37
2023-04-21T10:22:59.398Z,13.83
2023-04-21T10:25:52.126Z,12.70
2023-04-21T10:28:48.917Z,14.73
2023-04-21T10:31:39.323Z,13.10
2023-04-21T10:34:35.519Z,12.77
2023-04-21T10:37:23.576Z,14.50
2023-04-21T10:40:44.302Z,16.17
2023-04-21T10:43:48.440Z,15.53
2023-04-21T10:46:39.467Z,14.00
2023-04-21T10:49:29.124Z,12.70
2023-04-21T10:52:17.993Z,14.90
2023-04-21T10:55:10.693Z,11.97
2023-04-21T10:57:59.413Z,13.70
2023-04-21T11:00:54.885Z,13.43
2023-04-21T11:03:43.337Z,12.63
2023-04-21T11:06:32.797Z,12.40
2023-04-21T11:09:21.284Z,12.73
2023-04-21T11:12:12.709Z,14.70
2023-04-21T11:15:03.873Z,12.17
2023-04-21T11:17:53.647Z,12.40
2023-04-21T11:20:46.176Z,11.40
2023-04-21T11:23:34.399Z,12.20
2023-04-21T11:26:32.963Z,11.60
2023-04-21T11:29:21.521Z,12.40
2023-04-21T11:32:10.297Z,11.03
2023-04-21T11:35:00.168Z,12.40
2023-04-21T11:37:51.662Z,12.23
2023-04-21T11:40:47.091Z,12.27
2023-04-21T11:43:35.713Z,14.70
2023-04-21T11:46:26.722Z,10.60
2023-04-21T11:49:17.148Z,11.80
2023-04-21T11:52:06.892Z,11.20
2023-04-21T11:55:00.269Z,10.17
2023-04-21T11:57:48.477Z,12.20
2023-04-21T12:00:40.605Z,11.53
2023-04-21T12:03:38.275Z,13.07
2023-04-21T12:06:34.417Z,10.57
2023-04-21T12:09:28.155Z,11.03
2023-04-21T12:12:20.692Z,12.30
2023-04-21T12:15:12.181Z,10.97
2023-04-21T12:18:01.096Z,10.50
2023-04-21T12:20:52.113Z,10.00
2023-04-21T12:23:40.730Z,12.20
2023-04-21T12:26:30.442Z,10.40
2023-04-21T12:29:18.968Z,9.30
2023-04-21T12:32:08.005Z,10.60
2023-04-21T12:34:56.589Z,10.83
2023-04-21T12:37:46.891Z,10.17
2023-04-21T12:40:34.947Z,10.50
2023-04-21T12:43:24.597Z,10.00
2023-04-21T12:46:12.961Z,10.50
2023-04-21T12:49:01.673Z,10.17
2023-04-21T12:51:50.539Z,9.70
2023-04-21T12:54:39.164Z,11.77
2023-04-21T12:57:27.448Z,9.60
2023-04-21T13:00:17.668Z,9.80
2023-04-21T13:03:06.151Z,8.27
2023-04-21T13:05:54.648Z,9.07
2023-04-21T13:08:42.746Z,10.87
2023-04-21T13:11:31.395Z,9.40
2023-04-21T13:14:25.539Z,7.80
2023-04-21T13:17:21.466Z,9.27
2023-04-21T13:20:15.035Z,9.77
2023-04-21T13:23:07.548Z,8.73
2023-04-21T13:25:56.674Z,11.47
2023-04-21T13:28:44.751Z,9.00
2023-04-21T13:31:33.496Z,9.73
2023-04-21T13:34:23.362Z,9.87
2023-04-21T13:37:16.032Z,8.53
2023-04-21T13:40:04.998Z,7.93
2023-04-21T13:42:53.924Z,8.77
2023-04-21T13:45:42.041Z,8.30
2023-04-21T13:48:30.176Z,9.50
2023-04-21T13:51:22.377Z,8.93
2023-04-21T13:54:10.838Z,8.47
2023-04-21T13:56:59.699Z,9.57
2023-04-21T13:59:47.962Z,8.60
2023-04-21T14:02:36.654Z,10.10
2023-04-21T14:05:25.173Z,8.47
2023-04-21T14:08:15.120Z,9.37
2023-04-21T14:11:04.524Z,8.37
2023-04-21T14:19:37.627Z,9.43
2023-04-21T14:22:25.773Z,8.53
2023-04-21T14:25:15.777Z,8.43
2023-04-21T14:28:07.346Z,7.13
2023-04-21T14:30:56.040Z,8.53
2023-04-21T14:33:44.184Z,7.60
2023-04-21T14:36:32.670Z,8.10
2023-04-21T14:39:21.475Z,10.53
2023-04-21T14:42:11.065Z,8.33
2023-04-21T14:44:59.316Z,7.27
2023-04-21T14:47:47.633Z,8.47
2023-04-21T14:50:35.775Z,6.93
2023-04-21T14:53:24.080Z,11.07
2023-04-21T14:56:12.625Z,7.93
2023-04-21T14:59:02.375Z,8.63
2023-04-21T15:01:51.298Z,9.33
2023-04-21T15:04:39.787Z,6.83
2023-04-21T15:07:27.858Z,5.93
2023-04-21T15:10:16.263Z,10.60
2023-04-21T15:13:04.461Z,7.33
2023-04-21T15:15:54.314Z,8.17
2023-04-21T15:18:42.377Z,9.63
2023-04-21T15:21:32.039Z,9.20
2023-04-21T15:24:20.531Z,7.10
2023-04-21T15:27:09.033Z,9.37
2023-04-21T15:29:57.408Z,8.77
2023-04-21T15:32:46.984Z,10.73
2023-04-21T15:35:35.293Z,7.63
2023-04-21T15:38:23.389Z,9.80
2023-04-21T15:41:11.849Z,8.60
2023-04-21T15:44:01.561Z,7.20
2023-04-21T15:46:50.773Z,5.80
2023-04-21T15:49:40.357Z,6.93
2023-04-21T15:52:30.004Z,9.00
2023-04-21T15:55:19.122Z,6.20
2023-04-21T15:58:07.901Z,6.23
2023-04-21T16:00:56.341Z,6.60
2023-04-21T16:03:44.766Z,6.03
2023-04-21T16:06:36.110Z,8.93
2023-04-21T16:09:24.498Z,5.33
2023-04-21T16:12:12.841Z,6.80
2023-04-21T16:15:15.937Z,5.37
2023-04-21T16:18:08.770Z,7.90
2023-04-21T16:20:57.223Z,6.30
2023-04-21T16:23:47.218Z,6.33
2023-04-21T16:26:36.490Z,13.73
2023-04-21T16:29:25.201Z,6.03
2023-04-21T16:32:13.608Z,9.83
2023-04-21T16:35:01.922Z,5.73
2023-04-21T16:37:50.467Z,6.63
2023-04-21T16:40:41.158Z,7.13
2023-04-21T16:43:29.247Z,6.30
2023-04-21T16:46:17.837Z,5.60
2023-04-21T16:49:06.385Z,4.77
2023-04-21T16:51:54.708Z,5.67
2023-04-21T16:54:42.947Z,7.43
2023-04-21T16:57:32.864Z,5.10
2023-04-21T17:00:21.944Z,5.80
2023-04-21T17:03:10.511Z,5.15
2023-04-21T17:05:58.799Z,6.63
2023-04-21T17:08:46.982Z,5.23
2023-04-21T17:11:35.873Z,5.83
2023-04-21T17:14:26.683Z,6.17
2023-04-21T17:17:14.739Z,14.80
2023-04-21T17:20:03.966Z,9.23
2023-04-21T17:22:52.354Z,8.87
2023-04-21T17:25:41.025Z,10.63
2023-04-21T17:28:29.375Z,9.30
2023-04-21T17:31:19.010Z,17.23
2023-04-21T17:34:07.233Z,8.00
2023-04-21T17:36:55.686Z,8.37
2023-04-21T17:39:44.002Z,6.97
2023-04-21T17:42:32.274Z,6.67
2023-04-21T17:45:20.702Z,9.30
2023-04-21T17:48:10.365Z,8.00
2023-04-21T17:50:58.443Z,8.37
2023-04-21T17:53:47.377Z,9.03
2023-04-21T17:56:35.639Z,19.60
2023-04-21T17:59:23.823Z,24.43
2023-04-21T18:02:12.077Z,11.13
2023-04-21T18:05:01.743Z,7.93
2023-04-21T18:07:50.086Z,7.50
2023-04-21T18:10:38.643Z,7.53
2023-04-21T18:13:26.865Z,6.37
2023-04-21T18:16:15.069Z,6.13
2023-04-21T18:19:03.298Z,7.50
2023-04-21T18:21:53.428Z,8.30
2023-04-21T18:24:41.782Z,7.13
2023-04-21T18:27:30.169Z,8.23
2023-04-21T18:30:18.388Z,7.77
2023-04-21T18:33:06.918Z,8.23
2023-04-21T18:35:55.126Z,6.70
2023-04-21T18:38:44.676Z,8.07
2023-04-21T18:41:33.455Z,15.80
2023-04-21T18:44:21.583Z,20.17
2023-04-21T18:47:10.054Z,19.03
2023-04-21T18:49:58.444Z,10.07
2023-04-21T18:52:46.483Z,9.17
2023-04-21T18:55:37.532Z,12.83
2023-04-21T18:58:25.640Z,11.80
2023-04-21T19:01:13.851Z,7.97
2023-04-21T19:04:02.191Z,7.70
2023-04-21T19:06:50.593Z,5.27
2023-04-21T19:09:38.884Z,4.67
2023-04-21T19:12:28.853Z,4.40
2023-04-21T19:15:16.967Z,2.90
2023-04-21T19:18:05.337Z,2.40
2023-04-21T19:20:53.475Z,4.43
2023-04-21T19:23:41.997Z,3.70
2023-04-21T19:26:30.188Z,3.07
2023-04-21T19:29:19.710Z,2.57
2023-04-21T19:32:08.144Z,3.03
2023-04-21T19:34:56.665Z,3.37
2023-04-21T19:37:45.391Z,3.93
2023-04-21T19:40:33.737Z,4.33
2023-04-21T19:43:22.692Z,3.50
2023-04-21T19:46:12.252Z,4.10
2023-04-21T19:49:00.304Z,4.30
2023-04-21T19:51:48.342Z,4.40
2023-04-21T19:54:36.890Z,4.93
2023-04-21T19:57:25.103Z,6.50
2023-04-21T20:00:14.568Z,7.47
2023-04-21T20:03:04.429Z,6.20
2023-04-21T20:05:52.621Z,6.67
2023-04-21T20:08:41.529Z,6.43
2023-04-21T20:11:30.877Z,5.30
2023-04-21T20:14:20.445Z,6.87
2023-04-21T20:17:09.395Z,7.20
2023-04-21T20:19:59.484Z,6.50
2023-04-21T20:22:48.584Z,6.00
2023-04-21T20:25:37.727Z,5.73
2023-04-21T20:28:27.665Z,7.13
2023-04-21T20:31:18.141Z,8.67
2023-04-21T20:34:07.153Z,8.77
2023-04-21T20:36:59.583Z,9.10
2023-04-21T20:39:48.259Z,8.23
2023-04-21T20:42:36.564Z,9.43
2023-04-21T20:45:26.195Z,5.97
2023-04-21T20:48:14.608Z,4.80
2023-04-21T20:51:03.462Z,6.30
2023-04-21T20:53:53.585Z,6.13
2023-04-21T20:56:42.643Z,7.23
2023-04-21T20:59:31.334Z,6.93
2023-04-21T21:02:19.682Z,4.30
2023-04-21T21:05:08.502Z,6.50
2023-04-21T21:07:57.493Z,6.43
2023-04-21T21:10:47.382Z,5.47
2023-04-21T21:13:36.297Z,7.03
2023-04-21T21:16:25.900Z,5.90
2023-04-21T21:19:15.004Z,7.60
2023-04-21T21:22:03.366Z,6.93
2023-04-21T21:24:53.411Z,6.47
2023-04-21T21:27:43.284Z,4.30
2023-04-21T21:30:32.011Z,4.10
2023-04-21T21:33:21.294Z,4.70
2023-04-21T21:36:10.398Z,5.77
2023-04-21T21:38:59.172Z,4.93
2023-04-21T21:41:47.271Z,4.37
2023-04-21T21:44:37.503Z,6.57
2023-04-21T21:47:26.149Z,5.43
2023-04-21T21:50:14.981Z,5.50
2023-04-21T21:53:03.354Z,6.37
2023-04-21T21:55:52.097Z,6.27
2023-04-21T21:58:41.228Z,6.07
2023-04-21T22:01:31.333Z,7.80
2023-04-21T22:04:20.107Z,4.87
2023-04-21T22:07:08.849Z,5.17
2023-04-21T22:09:59.983Z,5.20
2023-04-21T22:12:48.543Z,5.37
2023-04-21T22:15:37.400Z,5.10
2023-04-21T22:18:27.492Z,4.30
2023-04-21T22:21:16.629Z,5.03
2023-04-21T22:24:05.172Z,4.80
2023-04-21T22:26:54.226Z,4.73
2023-04-21T22:29:42.656Z,7.97
2023-04-21T22:32:32.487Z,5.83
2023-04-21T22:35:22.699Z,6.40
2023-04-21T22:38:10.816Z,6.07
2023-04-21T22:40:58.998Z,6.83
2023-04-21T22:43:47.153Z,7.23
2023-04-21T22:46:36.570Z,7.43
2023-04-21T22:49:24.823Z,5.80
2023-04-21T22:52:15.436Z,6.10
2023-04-21T22:55:05.511Z,7.20
2023-04-21T22:57:53.981Z,5.83
2023-04-21T23:00:44.752Z,5.97
2023-04-21T23:03:33.150Z,7.23
2023-04-21T23:06:22.566Z,6.43
2023-04-21T23:09:12.453Z,5.50
2023-04-21T23:12:01.453Z,5.87
2023-04-21T23:14:50.137Z,6.23
2023-04-21T23:17:38.660Z,7.37
2023-04-21T23:20:27.108Z,5.80
2023-04-21T23:23:16.225Z,9.63
2023-04-21T23:26:06.473Z,6.13
2023-04-21T23:28:54.876Z,6.27
2023-04-21T23:31:43.968Z,7.73
2023-04-21T23:34:32.921Z,5.57
2023-04-21T23:37:21.736Z,5.47
2023-04-21T23:40:12.655Z,5.90
2023-04-21T23:43:02.455Z,7.07
2023-04-21T23:45:50.797Z,4.57
2023-04-21T23:48:39.398Z,5.10
2023-04-21T23:51:28.370Z,6.30
2023-04-21T23:54:16.875Z,5.63
2023-04-21T23:57:05.606Z,5.17
2023-04-21T23:59:55.908Z,4.80
